Hlavní strana
METAR-TAF:

METAR-TAF

Letiště :

Ottumwa Industrial Airport

Ottumwa, Iowa, Spojené státy americké

zeměpisná šířka: 41-06-24N, zeměpisná délka: 092-26-53W, výška: 258 m

Aktuální stav počasí

Zpráva byla vytvořena před 17 minutami, v 01:53 UTC
Severní vítr 11 kt
Teplota 1°C
Vlhkost vzduchu 69%
Tlak 1022 hPa
Viditelnost: 16.1 km
Zataženo ve výšce 3700 ft

METAR: KOTM 260153Z AUTO 36011KT 10SM OVC037 01/M04 A3017 RMK AO2 SLP223 T00061039

Čas: 20:10 (02:10 UTC)

Předpověď počasí

Zpráva byla vytvořena před 2 hodinami a 33 minutami, v 23:37 UTC
Předpověď platná od 26 v 00 UTC do 26 v 24 UTC
Severní vítr 16 kt
Viditelnost: 10 km
Skoro jasno ve výšce 2500 ft
Zataženo ve výšce 3500 ft
Od 26 v 0600 UTC
Severní vítr 14 kt s nárazy do 22 kt
Viditelnost: 10 km
Zataženo ve výšce 2200 ft
Od 26 v 1500 UTC
Severní vítr 14 kt
Viditelnost: 10 km
Zataženo ve výšce 3500 ft

TAF: KOTM 252337Z 2600/2624 01016KT P6SM FEW025 OVC035 FM260600 35014G22KT P6SM OVC022 FM261500 35014KT P6SM OVC035

Stav a předpovědi počasí z více než 4 000 letišť (zprávy METAR a TAF).

Červené a žluté tečky na mapě představují dostupné meteorologické stanice.

Když kurzor umístíte na tečku, zobrazí se název stanice.

Pak kliknutím zobrazíte stav a předpověď počasí.

Chcete-li změnit mapu, kliknutím na zelené tlačítko se znaménkem +mapu přiblížíte, kliknutím na zelené tlačítko se znaménkem – mapu oddálíte a kliknutím na zelené šipky přejdete na sousední mapy.


METAR-TAF: